createdAt,value
2022-09-30T00:00:52.661Z,1004.30
2022-09-30T00:01:52.672Z,1004.28
2022-09-30T00:02:52.596Z,1004.28
2022-09-30T00:03:52.510Z,1004.28
2022-09-30T00:04:52.461Z,1004.31
2022-09-30T00:05:52.410Z,1004.35
2022-09-30T00:06:52.387Z,1004.32
2022-09-30T00:07:52.313Z,1004.34
2022-09-30T00:08:52.262Z,1004.35
2022-09-30T00:09:52.212Z,1004.40
2022-09-30T00:10:52.164Z,1004.44
2022-09-30T00:11:52.114Z,1004.41
2022-09-30T00:12:52.065Z,1004.44
2022-09-30T00:13:52.013Z,1004.45
2022-09-30T00:14:51.965Z,1004.45
2022-09-30T00:15:51.973Z,1004.46
2022-09-30T00:16:51.866Z,1004.49
2022-09-30T00:17:51.819Z,1004.51
2022-09-30T00:18:51.766Z,1004.55
2022-09-30T00:19:51.718Z,1004.54
2022-09-30T00:20:51.667Z,1004.55
2022-09-30T00:21:51.614Z,1004.55
2022-09-30T00:22:51.583Z,1004.55
2022-09-30T00:23:51.516Z,1004.53
2022-09-30T00:24:51.468Z,1004.53
2022-09-30T00:25:51.418Z,1004.54
2022-09-30T00:26:51.367Z,1004.49
2022-09-30T00:27:51.319Z,1004.51
2022-09-30T00:28:51.271Z,1004.51
2022-09-30T00:29:51.220Z,1004.51
2022-09-30T00:30:51.170Z,1004.52
2022-09-30T00:31:51.170Z,1004.56
2022-09-30T00:32:51.068Z,1004.55
2022-09-30T00:33:51.018Z,1004.60
2022-09-30T00:34:50.969Z,1004.57
2022-09-30T00:35:50.921Z,1004.53
2022-09-30T00:36:50.868Z,1004.57
2022-09-30T00:37:50.819Z,1004.58
2022-09-30T00:38:50.786Z,1004.56
2022-09-30T00:39:50.718Z,1004.50
2022-09-30T00:40:50.670Z,1004.53
2022-09-30T00:41:50.627Z,1004.53
2022-09-30T00:42:50.597Z,1004.52
2022-09-30T00:43:50.517Z,1004.54
2022-09-30T00:44:50.472Z,1004.59
2022-09-30T00:45:50.420Z,1004.56
2022-09-30T00:46:50.441Z,1004.59
2022-09-30T00:47:50.323Z,1004.59
2022-09-30T00:48:50.272Z,1004.62
2022-09-30T00:49:50.220Z,1004.60
2022-09-30T00:50:50.171Z,1004.60
2022-09-30T00:51:50.125Z,1004.61
2022-09-30T00:52:50.075Z,1004.58
2022-09-30T00:53:50.023Z,1004.60
2022-09-30T00:54:49.989Z,1004.59
2022-09-30T00:55:49.919Z,1004.62
2022-09-30T00:56:49.882Z,1004.59
2022-09-30T00:57:49.821Z,1004.61
2022-09-30T00:58:49.772Z,1004.65
2022-09-30T00:59:49.726Z,1004.57
2022-09-30T01:00:49.781Z,1004.64
2022-09-30T01:01:49.752Z,1004.65
2022-09-30T01:02:49.576Z,1004.67
2022-09-30T01:03:49.521Z,1004.66
2022-09-30T01:04:49.471Z,1004.65
2022-09-30T01:05:49.422Z,1004.63
2022-09-30T01:06:49.371Z,1004.69
2022-09-30T01:07:49.322Z,1004.68
2022-09-30T01:08:49.273Z,1004.69
2022-09-30T01:09:49.304Z,1004.71
2022-09-30T01:10:49.203Z,1004.72
2022-09-30T01:11:49.121Z,1004.72
2022-09-30T01:12:49.075Z,1004.68
2022-09-30T01:13:49.022Z,1004.74
2022-09-30T01:14:48.976Z,1004.73
2022-09-30T01:15:48.936Z,1004.71
2022-09-30T01:16:48.873Z,1004.70
2022-09-30T01:17:48.822Z,1004.70
2022-09-30T01:18:48.771Z,1004.67
2022-09-30T01:19:48.719Z,1004.73
2022-09-30T01:20:48.673Z,1004.69
2022-09-30T01:21:48.622Z,1004.73
2022-09-30T01:22:48.572Z,1004.74
2022-09-30T01:23:48.522Z,1004.79
2022-09-30T01:24:48.473Z,1004.76
2022-09-30T01:25:48.423Z,1004.78
2022-09-30T01:26:48.398Z,1004.75
2022-09-30T01:27:48.323Z,1004.75
2022-09-30T01:28:48.272Z,1004.74
2022-09-30T01:29:48.426Z,1004.69
2022-09-30T01:30:48.172Z,1004.71
2022-09-30T01:31:48.173Z,1004.71
2022-09-30T01:32:48.076Z,1004.71
2022-09-30T01:33:48.023Z,1004.73
2022-09-30T01:34:47.972Z,1004.71
2022-09-30T01:35:47.922Z,1004.72
2022-09-30T01:36:47.873Z,1004.70
2022-09-30T01:37:47.825Z,1004.71
2022-09-30T01:38:47.771Z,1004.72
2022-09-30T01:39:47.721Z,1004.72
2022-09-30T01:40:47.673Z,1004.70
2022-09-30T01:41:47.621Z,1004.67
2022-09-30T01:42:47.593Z,1004.65
2022-09-30T01:43:47.522Z,1004.70
2022-09-30T01:44:47.474Z,1004.68
2022-09-30T01:45:47.422Z,1004.71
2022-09-30T01:46:47.438Z,1004.68
2022-09-30T01:47:47.320Z,1004.68
2022-09-30T01:48:47.278Z,1004.71
2022-09-30T01:49:47.220Z,1004.71
2022-09-30T01:50:47.173Z,1004.71
2022-09-30T01:51:47.121Z,1004.76
2022-09-30T01:52:47.074Z,1004.75
2022-09-30T01:53:47.028Z,1004.79
2022-09-30T01:54:46.971Z,1004.74
2022-09-30T01:55:46.921Z,1004.82
2022-09-30T01:56:46.873Z,1004.80
2022-09-30T01:57:46.827Z,1004.80
2022-09-30T01:58:46.788Z,1004.86
2022-09-30T01:59:46.721Z,1004.79
2022-09-30T02:00:46.752Z,1004.80
2022-09-30T02:01:46.761Z,1004.82
2022-09-30T02:02:46.571Z,1004.82
2022-09-30T02:03:46.518Z,1004.80
2022-09-30T02:04:46.469Z,1004.78
2022-09-30T02:05:46.420Z,1004.76
2022-09-30T02:06:46.369Z,1004.77
2022-09-30T02:07:46.320Z,1004.71
2022-09-30T02:08:46.269Z,1004.74
2022-09-30T02:09:46.277Z,1004.70
2022-09-30T02:10:46.171Z,1004.70
2022-09-30T02:11:46.122Z,1004.71
2022-09-30T02:12:46.069Z,1004.70
2022-09-30T02:13:46.020Z,1004.68
2022-09-30T02:14:45.989Z,1004.64
2022-09-30T02:15:45.922Z,1004.65
2022-09-30T02:16:45.869Z,1004.68
2022-09-30T02:17:45.819Z,1004.67
2022-09-30T02:18:45.795Z,1004.70
2022-09-30T02:19:45.721Z,1004.68
2022-09-30T02:20:45.669Z,1004.69
2022-09-30T02:21:45.629Z,1004.70
2022-09-30T02:22:45.571Z,1004.69
2022-09-30T02:23:45.519Z,1004.64
2022-09-30T02:24:45.467Z,1004.71
2022-09-30T02:25:45.419Z,1004.66
2022-09-30T02:26:45.370Z,1004.69
2022-09-30T02:27:45.319Z,1004.65
2022-09-30T02:28:45.266Z,1004.65
2022-09-30T02:29:45.220Z,1004.71
2022-09-30T02:30:45.184Z,1004.69
2022-09-30T02:31:45.190Z,1004.68
2022-09-30T02:32:45.067Z,1004.70
2022-09-30T02:33:45.017Z,1004.72
2022-09-30T02:34:44.967Z,1004.69
2022-09-30T02:35:44.915Z,1004.72
2022-09-30T02:36:44.865Z,1004.70
2022-09-30T02:37:44.819Z,1004.73
2022-09-30T02:38:44.768Z,1004.76
2022-09-30T02:39:44.716Z,1004.75
2022-09-30T02:40:44.668Z,1004.72
2022-09-30T02:41:44.618Z,1004.61
2022-09-30T02:42:44.565Z,1004.73
2022-09-30T02:43:44.516Z,1004.75
2022-09-30T02:44:44.467Z,1004.71
2022-09-30T02:45:44.417Z,1004.72
2022-09-30T02:46:44.509Z,1004.73
2022-09-30T02:47:44.315Z,1004.69
2022-09-30T02:48:44.272Z,1004.75
2022-09-30T02:49:44.214Z,1004.74
2022-09-30T02:50:44.163Z,1004.78
2022-09-30T02:51:44.114Z,1004.78
2022-09-30T02:52:44.062Z,1004.81
2022-09-30T02:53:44.020Z,1004.82
2022-09-30T02:54:43.962Z,1004.83
2022-09-30T02:55:43.920Z,1004.83
2022-09-30T02:56:43.867Z,1004.88
2022-09-30T02:57:43.822Z,1004.87
2022-09-30T02:58:43.761Z,1004.83
2022-09-30T02:59:43.721Z,1004.86
2022-09-30T03:00:43.755Z,1004.85
2022-09-30T03:01:43.673Z,1004.85
2022-09-30T03:02:43.579Z,1004.85
2022-09-30T03:03:43.513Z,1004.88
2022-09-30T03:04:43.467Z,1004.85
2022-09-30T03:05:43.413Z,1004.86
2022-09-30T03:06:43.360Z,1004.87
2022-09-30T03:07:43.313Z,1004.84
2022-09-30T03:08:43.260Z,1004.82
2022-09-30T03:09:43.264Z,1004.82
2022-09-30T03:10:43.159Z,1004.84
2022-09-30T03:11:43.111Z,1004.83
2022-09-30T03:12:43.062Z,1004.86
2022-09-30T03:13:43.011Z,1004.86
2022-09-30T03:14:42.959Z,1004.81
2022-09-30T03:15:42.911Z,1004.83
2022-09-30T03:16:42.942Z,1004.84
2022-09-30T03:17:42.811Z,1004.83
2022-09-30T03:18:42.777Z,1004.83
2022-09-30T03:19:42.714Z,1004.84
2022-09-30T03:20:42.659Z,1004.86
2022-09-30T03:21:42.610Z,1004.85
2022-09-30T03:22:42.557Z,1004.87
2022-09-30T03:23:42.510Z,1004.87
2022-09-30T03:24:42.459Z,1004.86
2022-09-30T03:25:42.414Z,1004.90
2022-09-30T03:26:42.357Z,1004.90
2022-09-30T03:27:42.314Z,1004.94
2022-09-30T03:28:42.264Z,1004.96
2022-09-30T03:29:42.211Z,1005.00
2022-09-30T03:30:42.156Z,1004.98
2022-09-30T03:31:42.213Z,1005.00
2022-09-30T03:32:42.057Z,1005.01
2022-09-30T03:33:42.008Z,1005.02
2022-09-30T03:34:41.979Z,1005.01
2022-09-30T03:35:41.905Z,1005.04
2022-09-30T03:36:41.859Z,1005.03
2022-09-30T03:37:41.809Z,1005.05
2022-09-30T03:38:41.755Z,1005.04
2022-09-30T03:39:41.710Z,1005.05
2022-09-30T03:40:41.654Z,1005.06
2022-09-30T03:41:41.605Z,1005.06
2022-09-30T03:42:41.555Z,1005.08
2022-09-30T03:43:41.505Z,1005.09
2022-09-30T03:44:41.454Z,1005.04
2022-09-30T03:45:41.404Z,1005.11
2022-09-30T03:46:41.402Z,1005.10
2022-09-30T03:47:41.309Z,1005.13
2022-09-30T03:48:41.253Z,1005.15
2022-09-30T03:49:41.215Z,1005.20
2022-09-30T03:50:41.170Z,1005.22
2022-09-30T03:51:41.106Z,1005.17
2022-09-30T03:52:41.053Z,1005.17
2022-09-30T03:53:41.007Z,1005.18
2022-09-30T03:54:40.953Z,1005.15
2022-09-30T03:55:40.908Z,1005.15
2022-09-30T03:56:40.853Z,1005.16
2022-09-30T03:57:40.812Z,1005.16
2022-09-30T03:58:40.753Z,1005.16
2022-09-30T03:59:40.704Z,1005.13
2022-09-30T04:00:40.720Z,1005.09
2022-09-30T04:01:40.714Z,1005.17
2022-09-30T04:02:40.553Z,1005.19
2022-09-30T04:03:40.508Z,1005.22
2022-09-30T04:04:40.452Z,1005.20
2022-09-30T04:05:40.405Z,1005.19
2022-09-30T04:06:40.370Z,1005.23
2022-09-30T04:07:40.303Z,1005.26
2022-09-30T04:08:40.250Z,1005.25
2022-09-30T04:09:40.292Z,1005.25
2022-09-30T04:10:40.151Z,1005.29
2022-09-30T04:11:40.102Z,1005.34
2022-09-30T04:12:40.051Z,1005.36
2022-09-30T04:13:40.003Z,1005.42
2022-09-30T04:14:39.955Z,1005.40
2022-09-30T04:15:39.902Z,1005.42
2022-09-30T04:16:39.975Z,1005.43
2022-09-30T04:17:39.803Z,1005.43
2022-09-30T04:18:39.751Z,1005.43
2022-09-30T04:19:39.703Z,1005.42
2022-09-30T04:20:39.650Z,1005.47
2022-09-30T04:21:39.605Z,1005.46
2022-09-30T04:22:39.672Z,1005.48
2022-09-30T04:23:39.499Z,1005.46
2022-09-30T04:24:39.450Z,1005.51
2022-09-30T04:25:39.401Z,1005.53
2022-09-30T04:26:39.356Z,1005.51
2022-09-30T04:27:39.300Z,1005.50
2022-09-30T04:28:39.249Z,1005.50
2022-09-30T04:29:39.200Z,1005.54
2022-09-30T04:30:39.150Z,1005.52
2022-09-30T04:31:39.160Z,1005.54
2022-09-30T04:32:39.048Z,1005.51
2022-09-30T04:33:39.000Z,1005.54
2022-09-30T04:34:38.952Z,1005.52
2022-09-30T04:35:38.905Z,1005.53
2022-09-30T04:36:38.854Z,1005.53
2022-09-30T04:37:38.799Z,1005.50
2022-09-30T04:38:38.883Z,1005.49
2022-09-30T04:39:38.702Z,1005.51
2022-09-30T04:40:38.646Z,1005.49
2022-09-30T04:41:38.599Z,1005.48
2022-09-30T04:42:38.547Z,1005.48
2022-09-30T04:43:38.497Z,1005.51
2022-09-30T04:44:38.452Z,1005.54
2022-09-30T04:45:38.447Z,1005.54
2022-09-30T04:46:38.348Z,1005.52
2022-09-30T04:47:38.296Z,1005.52
2022-09-30T04:48:38.247Z,1005.54
2022-09-30T04:49:38.197Z,1005.53
2022-09-30T04:50:38.144Z,1005.52
2022-09-30T04:51:38.098Z,1005.54
2022-09-30T04:52:38.045Z,1005.52
2022-09-30T04:53:37.996Z,1005.58
2022-09-30T04:54:37.959Z,1005.61
2022-09-30T04:55:37.895Z,1005.63
2022-09-30T04:56:37.844Z,1005.67
2022-09-30T04:57:37.795Z,1005.70
2022-09-30T04:58:37.743Z,1005.71
2022-09-30T04:59:37.697Z,1005.73
2022-09-30T05:00:37.722Z,1005.76
2022-09-30T05:01:37.661Z,1005.75
2022-09-30T05:02:37.542Z,1005.74
2022-09-30T05:03:37.495Z,1005.81
2022-09-30T05:04:37.442Z,1005.79
2022-09-30T05:05:37.395Z,1005.82
2022-09-30T05:06:37.343Z,1005.83
2022-09-30T05:07:37.295Z,1005.86
2022-09-30T05:08:38.839Z,1005.88
2022-09-30T05:09:37.235Z,1005.86
2022-09-30T05:10:37.163Z,1005.83
2022-09-30T05:11:37.094Z,1005.86
2022-09-30T05:12:37.042Z,1005.84
2022-09-30T05:13:36.991Z,1005.81
2022-09-30T05:14:36.941Z,1005.78
2022-09-30T05:15:36.893Z,1005.77
2022-09-30T05:16:36.882Z,1005.80
2022-09-30T05:17:36.790Z,1005.83
2022-09-30T05:18:36.738Z,1005.83
2022-09-30T05:19:36.691Z,1005.86
2022-09-30T05:20:36.639Z,1005.89
2022-09-30T05:21:36.589Z,1005.90
2022-09-30T05:22:36.542Z,1005.89
2022-09-30T05:23:36.489Z,1005.87
2022-09-30T05:24:36.437Z,1005.89
2022-09-30T05:25:36.391Z,1005.90
2022-09-30T05:26:36.356Z,1005.93
2022-09-30T05:27:36.296Z,1005.98
2022-09-30T05:28:36.238Z,1005.99
2022-09-30T05:29:36.189Z,1005.99
2022-09-30T05:30:36.135Z,1006.07
2022-09-30T05:31:36.122Z,1006.06
2022-09-30T05:32:36.038Z,1006.08
2022-09-30T05:33:36.202Z,1006.13
2022-09-30T05:34:35.934Z,1006.10
2022-09-30T05:35:35.887Z,1006.13
2022-09-30T05:36:35.835Z,1006.14
2022-09-30T05:37:35.786Z,1006.15
2022-09-30T05:38:35.735Z,1006.24
2022-09-30T05:39:35.685Z,1006.21
2022-09-30T05:40:35.632Z,1006.27
2022-09-30T05:41:35.586Z,1006.28
2022-09-30T05:42:35.549Z,1006.27
2022-09-30T05:43:35.483Z,1006.25
2022-09-30T05:44:35.433Z,1006.27
2022-09-30T05:45:35.388Z,1006.34
2022-09-30T05:46:35.394Z,1006.31
2022-09-30T05:47:35.284Z,1006.33
2022-09-30T05:48:35.233Z,1006.36
2022-09-30T05:49:35.182Z,1006.39
2022-09-30T05:50:35.133Z,1006.37
2022-09-30T05:51:35.086Z,1006.40
2022-09-30T05:52:35.033Z,1006.40
2022-09-30T05:53:34.982Z,1006.38
2022-09-30T05:54:34.932Z,1006.35
2022-09-30T05:55:39.058Z,1006.35
2022-09-30T05:56:34.829Z,1006.35
2022-09-30T05:57:34.780Z,1006.36
2022-09-30T05:58:34.746Z,1006.37
2022-09-30T05:59:34.679Z,1006.32
2022-09-30T06:00:34.627Z,1006.34
2022-09-30T06:01:34.674Z,1006.35
2022-09-30T06:02:34.630Z,1006.34
2022-09-30T06:03:34.480Z,1006.37
2022-09-30T06:04:34.426Z,1006.37
2022-09-30T06:05:34.377Z,1006.43
2022-09-30T06:06:34.327Z,1006.44
2022-09-30T06:07:34.277Z,1006.47
2022-09-30T06:08:34.226Z,1006.49
2022-09-30T06:09:34.263Z,1006.50
2022-09-30T06:10:34.129Z,1006.53
2022-09-30T06:11:34.080Z,1006.52
2022-09-30T06:12:34.029Z,1006.57
2022-09-30T06:13:33.976Z,1006.57
2022-09-30T06:14:33.944Z,1006.53
2022-09-30T06:15:33.881Z,1006.58
2022-09-30T06:16:33.858Z,1006.52
2022-09-30T06:17:33.782Z,1006.58
2022-09-30T06:18:33.740Z,1006.60
2022-09-30T06:19:33.680Z,1006.56
2022-09-30T06:20:33.625Z,1006.59
2022-09-30T06:21:33.581Z,1006.56
2022-09-30T06:22:33.527Z,1006.57
2022-09-30T06:23:33.477Z,1006.61
2022-09-30T06:24:33.425Z,1006.63
2022-09-30T06:25:33.376Z,1006.58
2022-09-30T06:26:33.326Z,1006.58
2022-09-30T06:27:33.277Z,1006.60
2022-09-30T06:28:33.224Z,1006.61
2022-09-30T06:29:33.174Z,1006.65
2022-09-30T06:30:35.379Z,1006.64
2022-09-30T06:31:33.145Z,1006.71
2022-09-30T06:32:33.024Z,1006.73
2022-09-30T06:33:32.973Z,1006.71
2022-09-30T06:34:32.925Z,1006.75
2022-09-30T06:35:32.882Z,1006.78
2022-09-30T06:36:32.823Z,1006.75
2022-09-30T06:37:32.773Z,1006.79
2022-09-30T06:38:32.724Z,1006.82
2022-09-30T06:39:32.674Z,1006.81
2022-09-30T06:40:32.628Z,1006.82
2022-09-30T06:41:32.571Z,1006.88
2022-09-30T06:42:32.538Z,1006.90
2022-09-30T06:43:35.512Z,1006.89
2022-09-30T06:44:34.072Z,1006.92
2022-09-30T06:45:33.215Z,1006.97
2022-09-30T06:46:32.490Z,1006.98
2022-09-30T06:47:32.313Z,1006.98
2022-09-30T06:48:38.391Z,1007.02
2022-09-30T06:49:45.072Z,1007.02
2022-09-30T06:50:32.122Z,1006.95
2022-09-30T06:51:32.079Z,1006.99
2022-09-30T06:52:32.023Z,1007.01
2022-09-30T06:53:31.974Z,1007.05
2022-09-30T06:54:31.926Z,1007.09
2022-09-30T06:55:31.874Z,1007.08
2022-09-30T06:56:31.834Z,1007.05
2022-09-30T06:57:31.776Z,1007.04
2022-09-30T06:58:31.725Z,1007.06
2022-09-30T06:59:31.675Z,1007.03
2022-09-30T07:00:31.768Z,1007.03
2022-09-30T07:01:31.578Z,1007.07
2022-09-30T07:02:31.649Z,1007.10
2022-09-30T07:03:31.476Z,1007.07
2022-09-30T07:04:31.429Z,1007.08
2022-09-30T07:05:31.379Z,1007.07
2022-09-30T07:06:31.330Z,1007.06
2022-09-30T07:07:31.278Z,1007.09
2022-09-30T07:08:31.231Z,1007.15
2022-09-30T07:09:31.242Z,1007.15
2022-09-30T07:10:31.133Z,1007.16
2022-09-30T07:11:31.081Z,1007.13
2022-09-30T07:12:31.033Z,1007.14
2022-09-30T07:13:30.984Z,1007.10
2022-09-30T07:14:30.936Z,1007.10
2022-09-30T07:15:30.884Z,1007.08
2022-09-30T07:16:30.883Z,1007.11
2022-09-30T07:17:30.788Z,1007.09
2022-09-30T07:18:30.768Z,1007.13
2022-09-30T07:19:30.690Z,1007.11
2022-09-30T07:20:30.649Z,1007.10
2022-09-30T07:21:30.591Z,1007.13
2022-09-30T07:22:30.549Z,1007.13
2022-09-30T07:23:30.492Z,1007.17
2022-09-30T07:24:30.445Z,1007.11
2022-09-30T07:25:30.394Z,1007.10
2022-09-30T07:26:30.347Z,1007.10
2022-09-30T07:27:30.297Z,1007.08
2022-09-30T07:28:30.250Z,1007.12
2022-09-30T07:29:44.458Z,1007.08
2022-09-30T07:30:30.151Z,1007.07
2022-09-30T07:31:35.110Z,1007.12
2022-09-30T07:32:30.120Z,1007.12
2022-09-30T07:33:30.006Z,1007.17
2022-09-30T07:34:29.973Z,1007.17
2022-09-30T07:35:29.907Z,1007.19
2022-09-30T07:36:32.687Z,1007.18
2022-09-30T07:37:29.810Z,1007.18
2022-09-30T07:38:29.762Z,1007.21
2022-09-30T07:39:29.713Z,1007.20
2022-09-30T07:40:29.666Z,1007.23
2022-09-30T07:41:29.615Z,1007.25
2022-09-30T07:42:29.568Z,1007.26
2022-09-30T07:43:29.518Z,1007.25
2022-09-30T07:44:29.471Z,1007.21
2022-09-30T07:45:29.479Z,1007.20
2022-09-30T07:46:29.375Z,1007.18
2022-09-30T07:47:29.330Z,1007.17
2022-09-30T07:48:29.279Z,1007.20
2022-09-30T07:49:29.228Z,1007.24
2022-09-30T07:50:29.208Z,1007.21
2022-09-30T07:51:29.130Z,1007.24
2022-09-30T07:52:29.084Z,1007.26
2022-09-30T07:53:29.034Z,1007.24
2022-09-30T07:54:28.988Z,1007.23
2022-09-30T07:55:28.941Z,1007.27
2022-09-30T07:56:41.094Z,1007.24
2022-09-30T07:57:28.842Z,1007.22
2022-09-30T07:58:28.796Z,1007.23
2022-09-30T07:59:28.748Z,1007.26
2022-09-30T08:00:42.107Z,1007.30
2022-09-30T08:01:28.720Z,1007.27
2022-09-30T08:02:28.780Z,1007.25
2022-09-30T08:03:28.556Z,1007.23
2022-09-30T08:04:28.507Z,1007.27
2022-09-30T08:05:28.459Z,1007.24
2022-09-30T08:06:28.435Z,1007.29
2022-09-30T08:07:28.361Z,1007.28
2022-09-30T08:08:28.322Z,1007.28
2022-09-30T08:09:28.570Z,1007.31
2022-09-30T08:10:28.220Z,1007.30
2022-09-30T08:11:28.170Z,1007.28
2022-09-30T08:12:28.124Z,1007.35
2022-09-30T08:13:28.073Z,1007.33
2022-09-30T08:14:28.028Z,1007.35
2022-09-30T08:15:27.979Z,1007.39
2022-09-30T08:16:28.005Z,1007.37
2022-09-30T08:17:27.889Z,1007.32
2022-09-30T08:18:27.840Z,1007.37
2022-09-30T08:19:27.787Z,1007.40
2022-09-30T08:20:27.743Z,1007.40
2022-09-30T08:21:27.695Z,1007.42
2022-09-30T08:22:27.662Z,1007.41
2022-09-30T08:23:27.598Z,1007.42
2022-09-30T08:24:27.785Z,1007.46
2022-09-30T08:25:27.506Z,1007.43
2022-09-30T08:26:27.457Z,1007.44
2022-09-30T08:27:27.579Z,1007.45
2022-09-30T08:28:27.363Z,1007.39
2022-09-30T08:29:53.127Z,1007.38
2022-09-30T08:30:27.307Z,1007.42
2022-09-30T08:31:27.244Z,1007.39
2022-09-30T08:32:27.175Z,1007.38
2022-09-30T08:33:27.125Z,1007.38
2022-09-30T08:34:27.084Z,1007.40
2022-09-30T08:35:27.029Z,1007.40
2022-09-30T08:36:26.982Z,1007.41
2022-09-30T08:37:26.935Z,1007.36
2022-09-30T08:38:26.904Z,1007.36
2022-09-30T08:39:26.843Z,1007.34
2022-09-30T08:40:26.792Z,1007.34
2022-09-30T08:41:26.745Z,1007.35
2022-09-30T08:42:47.078Z,1007.38
2022-09-30T08:43:26.650Z,1007.39
2022-09-30T08:44:26.605Z,1007.37
2022-09-30T08:45:26.726Z,1007.39
2022-09-30T08:46:26.579Z,1007.39
2022-09-30T08:47:26.460Z,1007.43
2022-09-30T08:48:26.415Z,1007.40
2022-09-30T08:49:26.369Z,1007.41
2022-09-30T08:50:26.327Z,1007.43
2022-09-30T08:51:26.273Z,1007.37
2022-09-30T08:52:37.285Z,1007.42
2022-09-30T08:54:26.152Z,1007.42
2022-09-30T08:55:26.087Z,1007.41
2022-09-30T08:56:26.036Z,1007.48
2022-09-30T08:57:25.992Z,1007.50
2022-09-30T08:58:25.944Z,1007.48
2022-09-30T08:59:25.901Z,1007.49
2022-09-30T09:00:25.852Z,1007.49
2022-09-30T09:01:25.870Z,1007.56
2022-09-30T09:02:25.786Z,1007.49
2022-09-30T09:03:25.715Z,1007.48
2022-09-30T09:04:25.819Z,1007.44
2022-09-30T09:05:25.622Z,1007.45
2022-09-30T09:06:25.583Z,1007.42
2022-09-30T09:07:25.528Z,1007.43
2022-09-30T09:08:25.475Z,1007.45
2022-09-30T09:09:25.533Z,1007.48
2022-09-30T09:10:25.399Z,1007.51
2022-09-30T09:11:25.339Z,1007.48
2022-09-30T09:12:25.290Z,1007.50
2022-09-30T09:13:25.246Z,1007.50
2022-09-30T09:15:25.153Z,1007.48
2022-09-30T09:16:25.192Z,1007.46
2022-09-30T09:17:25.059Z,1007.49
2022-09-30T09:18:25.445Z,1007.49
2022-09-30T09:19:25.046Z,1007.49
2022-09-30T09:20:24.918Z,1007.48
2022-09-30T09:21:24.883Z,1007.50
2022-09-30T09:22:25.129Z,1007.43
2022-09-30T09:23:24.779Z,1007.46
2022-09-30T09:24:24.774Z,1007.48
2022-09-30T09:25:24.685Z,1007.49
2022-09-30T09:26:24.659Z,1007.46
2022-09-30T09:27:24.619Z,1007.48
2022-09-30T09:28:24.593Z,1007.48
2022-09-30T09:29:24.722Z,1007.52
2022-09-30T09:30:24.452Z,1007.49
2022-09-30T09:31:24.434Z,1007.43
2022-09-30T09:32:24.361Z,1007.43
2022-09-30T09:33:24.316Z,1007.48
2022-09-30T09:34:24.272Z,1007.44
2022-09-30T09:35:24.220Z,1007.46
2022-09-30T09:36:24.178Z,1007.48
2022-09-30T09:37:24.129Z,1007.49
2022-09-30T09:38:24.085Z,1007.50
2022-09-30T09:39:24.242Z,1007.49
2022-09-30T09:40:23.993Z,1007.51
2022-09-30T09:41:23.947Z,1007.47
2022-09-30T09:42:23.920Z,1007.51
2022-09-30T09:43:26.241Z,1007.48
2022-09-30T09:44:23.921Z,1007.48
2022-09-30T09:45:23.758Z,1007.47
2022-09-30T09:46:23.843Z,1007.45
2022-09-30T09:47:23.667Z,1007.52
2022-09-30T09:48:23.623Z,1007.48
2022-09-30T09:49:23.574Z,1007.50
2022-09-30T09:50:23.528Z,1007.56
2022-09-30T09:51:23.485Z,1007.56
2022-09-30T09:52:23.441Z,1007.56
2022-09-30T09:53:23.390Z,1007.51
2022-09-30T09:54:23.432Z,1007.54
2022-09-30T09:55:23.303Z,1007.51
2022-09-30T09:56:23.262Z,1007.51
2022-09-30T09:57:23.222Z,1007.55
2022-09-30T09:58:23.181Z,1007.53
2022-09-30T09:59:23.296Z,1007.50
2022-09-30T10:00:23.072Z,1007.57
2022-09-30T10:01:23.078Z,1007.48
2022-09-30T10:02:22.999Z,1007.57
2022-09-30T10:03:22.930Z,1007.54
2022-09-30T10:04:22.975Z,1007.52
2022-09-30T10:05:22.839Z,1007.52
2022-09-30T10:06:22.797Z,1007.49
2022-09-30T10:07:22.748Z,1007.50
2022-09-30T10:08:22.703Z,1007.46
2022-09-30T10:09:22.758Z,1007.44
2022-09-30T10:10:24.301Z,1007.43
2022-09-30T10:11:22.562Z,1007.41
2022-09-30T10:12:22.519Z,1007.41
2022-09-30T10:13:22.473Z,1007.37
2022-09-30T10:14:22.471Z,1007.34
2022-09-30T10:15:22.380Z,1007.33
2022-09-30T10:16:22.399Z,1007.30
2022-09-30T10:17:22.289Z,1007.36
2022-09-30T10:18:22.244Z,1007.34
2022-09-30T10:19:22.199Z,1007.37
2022-09-30T10:20:22.155Z,1007.35
2022-09-30T10:21:22.108Z,1007.36
2022-09-30T10:22:22.060Z,1007.35
2022-09-30T10:23:22.015Z,1007.39
2022-09-30T10:24:21.980Z,1007.35
2022-09-30T10:25:21.929Z,1007.38
2022-09-30T10:26:21.906Z,1007.36
2022-09-30T10:27:21.832Z,1007.36
2022-09-30T10:28:21.815Z,1007.35
2022-09-30T10:29:21.764Z,1007.29
2022-09-30T10:30:21.713Z,1007.32
2022-09-30T10:31:21.710Z,1007.27
2022-09-30T10:32:21.645Z,1007.31
2022-09-30T10:33:21.557Z,1007.26
2022-09-30T10:34:21.511Z,1007.28
2022-09-30T10:35:21.467Z,1007.31
2022-09-30T10:36:21.426Z,1007.31
2022-09-30T10:37:21.374Z,1007.30
2022-09-30T10:38:21.330Z,1007.39
2022-09-30T10:39:21.287Z,1007.39
2022-09-30T10:40:21.240Z,1007.47
2022-09-30T10:41:21.194Z,1007.41
2022-09-30T10:42:25.788Z,1007.42
2022-09-30T10:43:21.107Z,1007.41
2022-09-30T10:44:21.065Z,1007.34
2022-09-30T10:45:21.015Z,1007.40
2022-09-30T10:46:26.295Z,1007.35
2022-09-30T10:47:20.920Z,1007.36
2022-09-30T10:48:20.874Z,1007.39
2022-09-30T10:49:20.832Z,1007.34
2022-09-30T10:50:20.783Z,1007.33
2022-09-30T10:51:20.741Z,1007.37
2022-09-30T10:52:20.694Z,1007.36
2022-09-30T10:53:20.648Z,1007.36
2022-09-30T10:54:20.603Z,1007.33
2022-09-30T10:55:20.558Z,1007.39
2022-09-30T10:56:20.510Z,1007.37
2022-09-30T10:57:20.464Z,1007.40
2022-09-30T10:58:20.418Z,1007.39
2022-09-30T10:59:20.374Z,1007.41
2022-09-30T11:00:20.326Z,1007.43
2022-09-30T11:01:20.312Z,1007.46
2022-09-30T11:03:20.292Z,1007.46
2022-09-30T11:04:20.146Z,1007.48
2022-09-30T11:05:20.105Z,1007.45
2022-09-30T11:06:20.053Z,1007.47
2022-09-30T11:07:20.010Z,1007.50
2022-09-30T11:08:19.964Z,1007.46
2022-09-30T11:09:19.921Z,1007.47
2022-09-30T11:10:19.872Z,1007.44
2022-09-30T11:11:19.831Z,1007.46
2022-09-30T11:12:19.782Z,1007.50
2022-09-30T11:13:19.742Z,1007.53
2022-09-30T11:14:19.690Z,1007.54
2022-09-30T11:15:19.650Z,1007.54
2022-09-30T11:16:19.695Z,1007.56
2022-09-30T11:17:22.706Z,1007.55
2022-09-30T11:18:19.525Z,1007.61
2022-09-30T11:19:19.466Z,1007.58
2022-09-30T11:20:19.423Z,1007.54
2022-09-30T11:21:19.373Z,1007.58
2022-09-30T11:22:19.326Z,1007.65
2022-09-30T11:23:19.284Z,1007.62
2022-09-30T11:24:19.240Z,1007.63
2022-09-30T11:25:19.194Z,1007.62
2022-09-30T11:26:19.144Z,1007.63
2022-09-30T11:27:19.102Z,1007.62
2022-09-30T11:28:19.093Z,1007.62
2022-09-30T11:29:19.010Z,1007.65
2022-09-30T11:30:18.962Z,1007.63
2022-09-30T11:31:18.991Z,1007.59
2022-09-30T11:32:18.875Z,1007.58
2022-09-30T11:33:18.830Z,1007.57
2022-09-30T11:34:18.807Z,1007.57
2022-09-30T11:35:18.738Z,1007.52
2022-09-30T11:36:18.693Z,1007.53
2022-09-30T11:37:18.649Z,1007.50
2022-09-30T11:38:18.601Z,1007.46
2022-09-30T11:39:18.557Z,1007.53
2022-09-30T11:40:18.515Z,1007.47
2022-09-30T11:41:18.466Z,1007.46
2022-09-30T11:42:18.422Z,1007.47
2022-09-30T11:43:18.376Z,1007.48
2022-09-30T11:44:18.329Z,1007.45
2022-09-30T11:45:18.286Z,1007.48
2022-09-30T11:46:18.388Z,1007.51
2022-09-30T11:47:18.195Z,1007.43
2022-09-30T11:48:18.148Z,1007.37
2022-09-30T11:49:18.107Z,1007.39
2022-09-30T11:50:18.080Z,1007.38
2022-09-30T11:51:18.017Z,1007.37
2022-09-30T11:52:17.979Z,1007.38
2022-09-30T11:53:17.926Z,1007.34
2022-09-30T11:54:17.880Z,1007.39
2022-09-30T11:55:17.837Z,1007.37
2022-09-30T11:56:17.789Z,1007.41
2022-09-30T11:57:17.748Z,1007.38
2022-09-30T11:58:39.877Z,1007.37
2022-09-30T11:59:17.654Z,1007.38
2022-09-30T12:00:17.615Z,1007.32
2022-09-30T12:01:17.567Z,1007.24
2022-09-30T12:02:17.563Z,1007.29
2022-09-30T12:03:17.519Z,1007.29
2022-09-30T12:04:17.434Z,1007.28
2022-09-30T12:05:17.388Z,1007.25
2022-09-30T12:06:17.385Z,1007.25
2022-09-30T12:07:17.297Z,1007.25
2022-09-30T12:08:17.252Z,1007.22